createdAt,value
2024-01-16T00:01:01.142Z,87.13
2024-01-16T00:04:49.421Z,86.54
2024-01-16T00:08:38.658Z,86.49
2024-01-16T00:12:00.320Z,86.55
2024-01-16T00:15:31.273Z,86.42
2024-01-16T00:19:19.508Z,86.16
2024-01-16T00:23:08.246Z,86.01
2024-01-16T00:26:49.124Z,85.82
2024-01-16T00:30:37.572Z,85.64
2024-01-16T00:34:25.856Z,85.71
2024-01-16T00:38:14.471Z,86.23
2024-01-16T00:42:02.878Z,86.11
2024-01-16T00:45:52.093Z,86.34
2024-01-16T00:49:40.264Z,86.47
2024-01-16T00:53:12.849Z,86.57
2024-01-16T00:57:01.252Z,86.41
2024-01-16T01:00:47.873Z,87.04
2024-01-16T01:04:38.778Z,87.17
2024-01-16T01:08:06.821Z,87.44
2024-01-16T01:11:45.222Z,87.69
2024-01-16T01:15:33.482Z,87.69
2024-01-16T01:19:13.327Z,87.60
2024-01-16T01:23:01.831Z,87.53
2024-01-16T01:26:50.132Z,87.34
2024-01-16T01:30:38.671Z,87.12
2024-01-16T01:34:10.412Z,86.74
2024-01-16T01:37:54.627Z,86.66
2024-01-16T01:41:36.012Z,86.26
2024-01-16T01:45:03.732Z,86.17
2024-01-16T01:48:34.434Z,85.98
2024-01-16T01:52:04.124Z,85.65
2024-01-16T01:55:37.993Z,85.41
2024-01-16T01:59:26.160Z,85.21
2024-01-16T02:02:49.201Z,85.37
2024-01-16T02:06:18.418Z,85.48
2024-01-16T02:10:06.909Z,85.47
2024-01-16T02:13:55.095Z,85.73
2024-01-16T02:17:43.526Z,85.72
2024-01-16T02:21:31.857Z,86.07
2024-01-16T02:25:19.953Z,86.41
2024-01-16T02:28:40.558Z,86.55
2024-01-16T02:31:38.670Z,86.41
2024-01-16T02:35:19.903Z,86.51
2024-01-16T02:39:07.872Z,86.71
2024-01-16T02:42:38.598Z,86.44
2024-01-16T02:46:26.795Z,86.48
2024-01-16T02:50:15.161Z,86.79
2024-01-16T02:53:48.827Z,87.09
2024-01-16T02:57:17.401Z,87.23
2024-01-16T03:00:55.645Z,87.37
2024-01-16T03:04:09.670Z,87.33
2024-01-16T03:07:57.771Z,87.24
2024-01-16T03:11:30.117Z,87.25
2024-01-16T03:15:19.688Z,87.93
2024-01-16T03:19:07.989Z,87.83
2024-01-16T03:22:56.348Z,86.86
2024-01-16T03:26:44.808Z,86.29
2024-01-16T03:30:32.530Z,85.96
2024-01-16T03:33:42.587Z,85.82
2024-01-16T03:37:16.131Z,85.88
2024-01-16T03:40:54.251Z,86.13
2024-01-16T03:44:42.818Z,86.18
2024-01-16T03:47:34.392Z,86.35
2024-01-16T03:50:55.873Z,86.71
2024-01-16T03:54:19.521Z,86.86
2024-01-16T03:57:37.362Z,86.55
2024-01-16T04:01:09.346Z,86.29
2024-01-16T04:04:49.250Z,85.94
2024-01-16T04:08:37.443Z,85.58
2024-01-16T04:12:25.619Z,85.38
2024-01-16T04:16:13.761Z,85.46
2024-01-16T04:19:47.266Z,84.88
2024-01-16T04:23:28.300Z,84.49
2024-01-16T04:26:56.271Z,84.38
2024-01-16T04:30:44.291Z,84.59
2024-01-16T04:34:32.801Z,83.74
2024-01-16T04:38:12.832Z,83.71
2024-01-16T04:42:01.037Z,83.66
2024-01-16T04:45:49.918Z,83.56
2024-01-16T04:49:30.141Z,83.32
2024-01-16T04:53:02.385Z,83.40
2024-01-16T04:56:50.606Z,83.41
2024-01-16T05:00:29.020Z,83.00
2024-01-16T05:04:06.441Z,83.12
2024-01-16T05:07:07.395Z,83.07
2024-01-16T05:10:42.733Z,83.10
2024-01-16T05:14:31.855Z,83.09
2024-01-16T05:18:20.294Z,82.98
2024-01-16T05:22:08.546Z,82.48
2024-01-16T05:25:47.316Z,82.09
2024-01-16T05:29:29.031Z,82.29
2024-01-16T05:33:11.769Z,82.34
2024-01-16T05:36:49.262Z,82.48
2024-01-16T05:40:18.926Z,82.23
2024-01-16T05:43:59.278Z,81.86
2024-01-16T05:47:31.820Z,81.13
2024-01-16T05:50:27.075Z,80.94
2024-01-16T05:53:58.436Z,81.01
2024-01-16T05:57:37.869Z,81.09
2024-01-16T06:01:18.791Z,81.11
2024-01-16T06:04:06.507Z,81.14
2024-01-16T06:06:47.375Z,81.08
2024-01-16T06:10:35.999Z,80.93
2024-01-16T06:14:24.136Z,80.93
2024-01-16T06:17:55.460Z,80.65
2024-01-16T06:21:36.558Z,80.53
2024-01-16T06:25:07.468Z,80.57
2024-01-16T06:28:51.677Z,80.25
2024-01-16T06:32:29.660Z,79.74
2024-01-16T06:35:30.543Z,80.02
2024-01-16T06:39:08.593Z,79.46
2024-01-16T06:41:46.293Z,79.49
2024-01-16T06:45:16.914Z,79.24
2024-01-16T06:48:39.699Z,78.20
2024-01-16T06:52:01.868Z,77.53
2024-01-16T06:54:55.735Z,77.58
2024-01-16T06:58:15.468Z,77.66
2024-01-16T07:01:57.610Z,77.80
2024-01-16T07:05:35.840Z,77.48
2024-01-16T07:09:24.081Z,77.63
2024-01-16T07:12:34.694Z,77.44
2024-01-16T07:16:22.963Z,77.68
2024-01-16T07:20:10.953Z,77.08
2024-01-16T07:23:39.600Z,77.42
2024-01-16T07:26:57.761Z,76.79
2024-01-16T07:30:24.302Z,77.24
2024-01-16T07:34:12.494Z,77.16
2024-01-16T07:37:50.569Z,77.01
2024-01-16T07:41:21.775Z,77.46
2024-01-16T07:45:01.347Z,77.35
2024-01-16T07:48:38.951Z,77.20
2024-01-16T07:52:23.932Z,77.39
2024-01-16T07:55:45.668Z,77.53
2024-01-16T07:59:32.279Z,77.78
2024-01-16T08:03:03.058Z,78.26
2024-01-16T08:06:51.391Z,78.67
2024-01-16T08:09:39.230Z,79.07
2024-01-16T08:13:03.283Z,79.35
2024-01-16T08:16:45.293Z,79.48
2024-01-16T08:20:33.410Z,79.86
2024-01-16T08:23:41.454Z,80.37
2024-01-16T08:27:28.460Z,80.70
2024-01-16T08:30:59.539Z,81.17
2024-01-16T08:34:27.862Z,81.49
2024-01-16T08:37:40.791Z,81.60
2024-01-16T08:41:09.386Z,81.52
2024-01-16T08:44:57.756Z,81.55
2024-01-16T08:48:18.195Z,81.52
2024-01-16T08:52:01.265Z,81.41
2024-01-16T08:55:36.869Z,80.29
2024-01-16T08:59:24.562Z,80.00
2024-01-16T09:03:12.973Z,79.49
2024-01-16T09:06:44.556Z,78.85
2024-01-16T09:10:22.984Z,78.07
2024-01-16T09:14:11.170Z,78.26
2024-01-16T09:17:59.350Z,78.26
2024-01-16T09:21:25.299Z,77.11
2024-01-16T09:25:03.511Z,76.48
2024-01-16T09:28:31.944Z,76.59
2024-01-16T09:32:20.304Z,76.96
2024-01-16T09:36:08.360Z,77.58
2024-01-16T09:39:32.168Z,77.72
2024-01-16T09:43:03.505Z,78.01
2024-01-16T09:46:51.535Z,77.61
2024-01-16T09:49:42.370Z,76.57
2024-01-16T09:53:00.208Z,76.39
2024-01-16T09:56:14.627Z,76.24
2024-01-16T09:59:53.038Z,75.67
2024-01-16T10:03:41.294Z,75.29
2024-01-16T10:07:29.381Z,74.89
2024-01-16T10:10:59.033Z,73.76
2024-01-16T10:14:37.518Z,74.02
2024-01-16T10:18:02.247Z,73.21
2024-01-16T10:21:43.267Z,73.23
2024-01-16T10:25:23.198Z,73.05
2024-01-16T10:28:40.268Z,72.71
2024-01-16T10:31:31.817Z,71.85
2024-01-16T10:34:59.182Z,72.77
2024-01-16T10:38:30.536Z,72.82
2024-01-16T10:41:36.259Z,71.77
2024-01-16T10:44:53.191Z,72.50
2024-01-16T10:48:05.240Z,72.06
2024-01-16T10:51:19.288Z,72.38
2024-01-16T10:54:08.638Z,72.39
2024-01-16T10:57:25.398Z,72.58
2024-01-16T11:00:33.930Z,72.26
2024-01-16T11:04:01.010Z,71.81
2024-01-16T11:07:12.916Z,71.71
2024-01-16T11:10:44.227Z,71.50
2024-01-16T11:14:32.651Z,71.42
2024-01-16T11:17:43.632Z,71.47
2024-01-16T11:21:11.043Z,70.58
2024-01-16T11:24:04.910Z,70.74
2024-01-16T11:27:21.033Z,70.16
2024-01-16T11:31:04.101Z,70.08
2024-01-16T11:34:50.965Z,70.35
2024-01-16T11:38:09.632Z,69.60
2024-01-16T11:41:51.197Z,69.61
2024-01-16T11:45:15.667Z,69.46
2024-01-16T11:48:27.358Z,69.18
2024-01-16T11:52:07.153Z,68.89
2024-01-16T11:56:10.617Z,68.95
2024-01-16T12:00:03.719Z,69.25
2024-01-16T12:03:55.005Z,69.84
2024-01-16T12:07:45.573Z,69.45
2024-01-16T12:11:41.030Z,68.92
2024-01-16T12:15:32.042Z,69.32
2024-01-16T12:19:20.534Z,69.38
2024-01-16T12:22:51.230Z,69.85
2024-01-16T12:26:39.411Z,70.00
2024-01-16T12:30:28.446Z,69.90
2024-01-16T12:34:16.857Z,70.77
2024-01-16T12:38:07.764Z,71.70
2024-01-16T12:41:42.335Z,72.45
2024-01-16T12:45:31.571Z,73.01
2024-01-16T12:49:11.608Z,73.06
2024-01-16T12:52:41.444Z,73.97
2024-01-16T12:56:09.668Z,74.15
2024-01-16T12:59:51.143Z,73.92
2024-01-16T13:03:39.558Z,73.38
2024-01-16T13:07:27.782Z,73.45
2024-01-16T13:11:16.471Z,73.93
2024-01-16T13:14:57.230Z,74.17
2024-01-16T13:18:36.829Z,74.74
2024-01-16T13:22:15.055Z,73.78
2024-01-16T13:26:03.312Z,73.63
2024-01-16T13:29:46.140Z,73.42
2024-01-16T13:33:34.472Z,72.60
2024-01-16T13:37:15.233Z,72.84
2024-01-16T13:40:30.442Z,73.03
2024-01-16T13:44:11.008Z,72.63
2024-01-16T13:47:36.556Z,72.84
2024-01-16T13:51:03.040Z,72.56
2024-01-16T13:54:15.569Z,72.58
2024-01-16T13:57:49.381Z,71.99
2024-01-16T14:01:17.471Z,72.05
2024-01-16T14:04:47.079Z,72.46
2024-01-16T14:08:22.176Z,71.37
2024-01-16T14:11:55.599Z,71.58
2024-01-16T14:15:21.144Z,71.84
2024-01-16T14:18:37.707Z,71.99
2024-01-16T14:22:19.081Z,71.71
2024-01-16T14:26:02.296Z,72.06
2024-01-16T14:29:50.984Z,71.43
2024-01-16T14:33:38.495Z,71.66
2024-01-16T14:37:26.913Z,72.00
2024-01-16T14:41:05.481Z,72.27
2024-01-16T14:44:53.564Z,72.07
2024-01-16T14:48:42.011Z,72.92
2024-01-16T14:52:19.836Z,72.48
2024-01-16T14:56:07.888Z,72.75
2024-01-16T14:59:56.329Z,72.31
2024-01-16T15:03:44.777Z,72.46
2024-01-16T15:07:33.246Z,72.73
2024-01-16T15:11:20.482Z,72.83
2024-01-16T15:15:08.808Z,73.04
2024-01-16T15:18:41.407Z,73.36
2024-01-16T15:22:19.673Z,73.67
2024-01-16T15:26:06.856Z,73.89
2024-01-16T15:29:55.175Z,74.28
2024-01-16T15:33:42.078Z,74.97
2024-01-16T15:37:29.558Z,75.37
2024-01-16T15:40:57.275Z,75.53
2024-01-16T15:44:27.814Z,75.31
2024-01-16T15:48:04.860Z,75.39
2024-01-16T15:51:53.091Z,75.02
2024-01-16T15:55:41.196Z,75.07
2024-01-16T15:59:28.300Z,75.13
2024-01-16T16:03:19.738Z,74.82
2024-01-16T16:07:08.042Z,74.23
2024-01-16T16:10:46.811Z,73.95
2024-01-16T16:14:35.006Z,71.36
2024-01-16T16:18:03.216Z,69.12
2024-01-16T16:21:51.392Z,67.38
2024-01-16T16:25:22.746Z,65.96
2024-01-16T16:29:10.820Z,65.92
2024-01-16T16:32:58.976Z,65.61
2024-01-16T16:36:47.231Z,66.07
2024-01-16T16:40:35.378Z,64.93
2024-01-16T16:44:23.693Z,64.37
2024-01-16T16:48:10.846Z,64.56
2024-01-16T16:51:59.278Z,65.15
2024-01-16T16:55:47.874Z,64.45
2024-01-16T16:59:36.147Z,63.27
2024-01-16T17:03:24.420Z,63.74
2024-01-16T17:07:13.785Z,64.00
2024-01-16T17:11:02.612Z,64.61
2024-01-16T17:14:50.705Z,64.72
2024-01-16T17:18:38.362Z,64.32
2024-01-16T17:22:26.966Z,64.74
2024-01-16T17:26:05.398Z,65.42
2024-01-16T17:29:43.638Z,65.64
2024-01-16T17:32:41.787Z,65.84
2024-01-16T17:36:08.335Z,65.84
2024-01-16T17:39:02.300Z,66.69
2024-01-16T17:42:02.009Z,67.01
2024-01-16T17:44:51.292Z,67.58
2024-01-16T17:48:02.474Z,67.83
2024-01-16T17:51:49.964Z,68.19
2024-01-16T17:55:41.079Z,68.26
2024-01-16T17:59:20.700Z,68.17
2024-01-16T18:02:51.866Z,67.24
2024-01-16T18:06:40.651Z,68.63
2024-01-16T18:09:34.724Z,69.10
2024-01-16T18:13:12.881Z,69.29
2024-01-16T18:16:39.884Z,69.49
2024-01-16T18:20:27.958Z,68.61
2024-01-16T18:23:58.766Z,68.09
2024-01-16T18:27:26.848Z,68.14
2024-01-16T18:30:40.280Z,66.97
2024-01-16T18:33:41.443Z,67.99
2024-01-16T18:37:08.277Z,68.15
2024-01-16T18:40:50.279Z,67.93
2024-01-16T18:44:38.361Z,69.15
2024-01-16T18:48:05.383Z,69.25
2024-01-16T18:51:53.631Z,69.35
2024-01-16T18:55:42.283Z,69.37
2024-01-16T18:59:30.360Z,68.78
2024-01-16T19:03:18.694Z,69.38
2024-01-16T19:07:07.450Z,69.12
2024-01-16T19:10:45.918Z,68.82
2024-01-16T19:13:49.983Z,67.27
2024-01-16T19:17:19.379Z,66.58
2024-01-16T19:21:07.988Z,67.41
2024-01-16T19:24:30.094Z,67.36
2024-01-16T19:27:50.365Z,67.81
2024-01-16T19:31:04.478Z,67.65
2024-01-16T19:34:35.320Z,68.05
2024-01-16T19:38:23.382Z,67.56
2024-01-16T19:41:51.512Z,66.94
2024-01-16T19:45:29.610Z,66.99
2024-01-16T19:49:07.004Z,67.49
2024-01-16T19:52:55.301Z,67.83
2024-01-16T19:56:26.002Z,67.22
2024-01-16T19:59:29.404Z,67.11
2024-01-16T20:02:50.949Z,66.90
2024-01-16T20:06:39.721Z,66.24
2024-01-16T20:10:28.265Z,66.65
2024-01-16T20:13:59.755Z,66.58
2024-01-16T20:17:42.818Z,67.95
2024-01-16T20:21:31.181Z,67.51
2024-01-16T20:24:26.321Z,68.03
2024-01-16T20:28:14.367Z,68.32
2024-01-16T20:31:29.847Z,68.72
2024-01-16T20:35:17.899Z,68.23
2024-01-16T20:38:48.570Z,67.77
2024-01-16T20:42:03.194Z,68.12
2024-01-16T20:45:51.481Z,67.41
2024-01-16T20:48:49.584Z,67.44
2024-01-16T20:52:38.131Z,67.32
2024-01-16T20:56:26.337Z,68.09
2024-01-16T21:00:15.284Z,67.43
2024-01-16T21:03:51.139Z,66.65
2024-01-16T21:07:40.096Z,66.62
2024-01-16T21:11:28.386Z,66.12
2024-01-16T21:15:13.286Z,65.98
2024-01-16T21:19:01.844Z,66.02
2024-01-16T21:22:50.044Z,66.67
2024-01-16T21:26:31.359Z,66.96
2024-01-16T21:29:59.304Z,67.68
2024-01-16T21:33:47.709Z,67.77
2024-01-16T21:37:01.713Z,68.04
2024-01-16T21:40:49.908Z,68.27
2024-01-16T21:44:38.035Z,68.74
2024-01-16T21:48:19.270Z,68.53
2024-01-16T21:51:47.365Z,68.84
2024-01-16T21:55:26.549Z,68.51
2024-01-16T21:59:06.306Z,68.34
2024-01-16T22:02:44.760Z,68.68
2024-01-16T22:06:34.179Z,69.21
2024-01-16T22:10:12.418Z,69.33
2024-01-16T22:13:53.696Z,69.70
2024-01-16T22:17:21.691Z,70.23
2024-01-16T22:21:09.005Z,70.70
2024-01-16T22:24:57.299Z,70.59
2024-01-16T22:28:45.946Z,70.67
2024-01-16T22:32:26.720Z,71.04
2024-01-16T22:35:54.980Z,71.53
2024-01-16T22:38:41.995Z,71.82
2024-01-16T22:42:19.891Z,71.95
2024-01-16T22:45:58.417Z,72.24
2024-01-16T22:49:46.790Z,71.69
2024-01-16T22:53:14.174Z,71.78
2024-01-16T22:56:45.380Z,71.73
2024-01-16T23:00:39.296Z,71.72
2024-01-16T23:03:31.094Z,71.64
2024-01-16T23:07:09.800Z,71.43
2024-01-16T23:10:55.322Z,71.47
2024-01-16T23:14:27.619Z,71.51
2024-01-16T23:18:16.000Z,71.32
2024-01-16T23:22:04.224Z,71.48
2024-01-16T23:25:40.766Z,71.53
2024-01-16T23:29:18.965Z,71.29
2024-01-16T23:32:26.059Z,71.67
2024-01-16T23:36:14.760Z,71.64
2024-01-16T23:40:02.866Z,71.98
2024-01-16T23:43:43.885Z,71.99
2024-01-16T23:47:32.259Z,71.92
2024-01-16T23:51:21.304Z,71.87
2024-01-16T23:55:09.670Z,72.00
2024-01-16T23:58:58.032Z,71.89
